Time;durP1;ratioP1;P1;durP2;ratioP2;P2;SDS_P1;SDS_P2;PMS_P1;PMS_P2;Temp;Humidity;BMP_temperature;BMP_pressure;BME280_temperature;BME280_humidity;BME280_pressure;Samples;Min_cycle;Max_cycle;Signal;HPM_P1;HPM_P2
2022/08/04 00:00:59;;;;;;;60.17;4.00;;;;;;;;;;5112002;28;20464;-65
2022/08/04 00:03:29;;;;;;;60.97;4.03;;;;;;;;;;5112012;28;20501;-65
2022/08/04 00:06:01;;;;;;;68.43;4.37;;;;;;;;;;5112431;28;20445;-65
2022/08/04 00:08:33;;;;;;;59.57;3.97;;;;;;;;;;5112184;28;20437;-65
2022/08/04 00:11:01;;;;;;;61.10;4.47;;;;;;;;;;5111740;28;20489;-65
2022/08/04 00:13:29;;;;;;;60.17;4.17;;;;;;;;;;5111953;28;20963;-66
2022/08/04 00:15:58;;;;;;;59.60;4.07;;;;;;;;;;5112345;28;20537;-67
2022/08/04 00:18:28;;;;;;;63.20;4.00;;;;;;;;;;5111747;28;20853;-65
2022/08/04 00:20:57;;;;;;;60.70;4.00;;;;;;;;;;5112466;28;20493;-65
2022/08/04 00:23:28;;;;;;;63.50;4.37;;;;;;;;;;5112075;28;20478;-65
2022/08/04 00:25:56;;;;;;;59.40;3.90;;;;;;;;;;5111894;28;20448;-65
2022/08/04 00:28:24;;;;;;;61.07;4.30;;;;;;;;;;5111846;28;20896;-67
2022/08/04 00:30:54;;;;;;;61.07;4.00;;;;;;;;;;5094145;28;20468;-66
2022/08/04 00:33:22;;;;;;;60.10;4.40;;;;;;;;;;5091787;28;20453;-65
2022/08/04 00:35:51;;;;;;;60.57;4.77;;;;;;;;;;5091508;28;20452;-68
2022/08/04 00:38:19;;;;;;;60.40;4.67;;;;;;;;;;5091175;28;20454;-67
2022/08/04 00:40:56;;;;;;;60.23;4.20;;;;;;;;;;5091155;28;20463;-67
2022/08/04 00:43:29;;;;;;;59.87;4.30;;;;;;;;;;5091602;28;20452;-67
2022/08/04 00:46:21;;;;;;;60.80;4.27;;;;;;;;;;5091596;28;20447;-67
2022/08/04 00:48:57;;;;;;;59.67;3.60;;;;;;;;;;5090594;28;20446;-67
2022/08/04 00:51:27;;;;;;;60.60;3.40;;;;;;;;;;5091636;28;20830;-67
2022/08/04 00:53:59;;;;;;;61.30;4.53;;;;;;;;;;5091676;28;20486;-67
2022/08/04 00:56:41;;;;;;;59.47;4.00;;;;;;;;;;5091396;28;20451;-67
2022/08/04 00:59:14;;;;;;;59.00;3.70;;;;;;;;;;5090880;28;20443;-67
2022/08/04 01:01:48;;;;;;;59.30;4.17;;;;;;;;;;5089991;28;20497;-67
2022/08/04 01:04:17;;;;;;;59.30;3.60;;;;;;;;;;5091355;28;20956;-68
2022/08/04 01:06:46;;;;;;;60.93;3.93;;;;;;;;;;5091675;28;20980;-68
2022/08/04 01:09:23;;;;;;;60.00;4.20;;;;;;;;;;5090832;28;20446;-67
2022/08/04 01:12:03;;;;;;;59.80;4.10;;;;;;;;;;5091070;28;20467;-67
2022/08/04 01:14:40;;;;;;;58.90;4.30;;;;;;;;;;5094411;28;20488;-67
2022/08/04 01:17:12;;;;;;;59.27;3.60;;;;;;;;;;5094950;28;20907;-67
2022/08/04 01:19:54;;;;;;;59.50;3.30;;;;;;;;;;5094501;28;20446;-67
2022/08/04 01:22:37;;;;;;;58.80;3.30;;;;;;;;;;5094739;28;20422;-68
2022/08/04 01:25:15;;;;;;;60.20;4.10;;;;;;;;;;5095047;28;20795;-67
2022/08/04 01:27:50;;;;;;;59.60;4.10;;;;;;;;;;5095017;28;20450;-67
2022/08/04 01:30:24;;;;;;;61.77;4.37;;;;;;;;;;5095070;28;20454;-67
2022/08/04 01:32:53;;;;;;;59.73;4.00;;;;;;;;;;5093929;28;20519;-67
2022/08/04 01:35:24;;;;;;;58.77;3.70;;;;;;;;;;5094699;28;20478;-67
2022/08/04 01:37:57;;;;;;;59.77;3.97;;;;;;;;;;5094984;28;20450;-68
2022/08/04 01:40:27;;;;;;;58.73;3.30;;;;;;;;;;5094481;28;20555;-67
2022/08/04 01:42:56;;;;;;;59.30;3.40;;;;;;;;;;5092961;28;20733;-67
2022/08/04 01:45:26;;;;;;;59.30;3.50;;;;;;;;;;5094277;28;20872;-67
2022/08/04 01:47:54;;;;;;;59.00;4.00;;;;;;;;;;5094818;28;20526;-67
2022/08/04 01:50:22;;;;;;;59.57;3.63;;;;;;;;;;5092970;28;20478;-67
2022/08/04 01:52:53;;;;;;;59.27;3.90;;;;;;;;;;5094613;28;20460;-67
2022/08/04 01:55:22;;;;;;;61.40;3.80;;;;;;;;;;5094300;28;20486;-67
2022/08/04 01:57:50;;;;;;;59.00;3.40;;;;;;;;;;5094354;28;20965;-67
2022/08/04 02:00:19;;;;;;;58.67;3.40;;;;;;;;;;5093866;28;20475;-67
2022/08/04 02:02:48;;;;;;;59.80;3.73;;;;;;;;;;5094258;28;20962;-68
2022/08/04 02:05:17;;;;;;;59.37;3.70;;;;;;;;;;5094262;28;20533;-67
2022/08/04 02:07:51;;;;;;;59.00;3.50;;;;;;;;;;5094150;28;20442;-68
2022/08/04 02:10:23;;;;;;;59.17;3.20;;;;;;;;;;5093691;28;20466;-67
2022/08/04 02:12:57;;;;;;;59.17;3.67;;;;;;;;;;5094150;28;20427;-67
2022/08/04 02:15:27;;;;;;;59.00;3.10;;;;;;;;;;5093758;28;20862;-68
2022/08/04 02:18:00;;;;;;;58.97;3.53;;;;;;;;;;5094160;28;20446;-67
2022/08/04 02:20:30;;;;;;;58.90;3.07;;;;;;;;;;5093892;28;20473;-67
2022/08/04 02:22:59;;;;;;;58.60;3.40;;;;;;;;;;5093742;28;20454;-67
2022/08/04 02:25:27;;;;;;;58.67;3.30;;;;;;;;;;5093226;28;20447;-67
2022/08/04 02:28:03;;;;;;;58.87;3.17;;;;;;;;;;5093843;28;20458;-68
2022/08/04 02:30:34;;;;;;;59.20;3.50;;;;;;;;;;5093383;28;20466;-67
2022/08/04 02:33:10;;;;;;;59.47;3.67;;;;;;;;;;5094228;28;20453;-68
2022/08/04 02:35:39;;;;;;;58.90;3.47;;;;;;;;;;5093821;28;20925;-67
2022/08/04 02:38:16;;;;;;;58.90;3.90;;;;;;;;;;5093579;28;20447;-67
2022/08/04 02:40:45;;;;;;;59.07;3.33;;;;;;;;;;5093371;28;20466;-68
2022/08/04 02:43:14;;;;;;;59.40;3.53;;;;;;;;;;5093443;28;20453;-67
2022/08/04 02:45:43;;;;;;;59.47;3.97;;;;;;;;;;5093669;28;20444;-68
2022/08/04 02:48:13;;;;;;;59.17;3.30;;;;;;;;;;5093493;28;20923;-68
2022/08/04 02:50:42;;;;;;;59.97;3.50;;;;;;;;;;5093060;28;20561;-67
2022/08/04 02:53:12;;;;;;;58.53;3.50;;;;;;;;;;5093250;28;20485;-68
2022/08/04 02:55:41;;;;;;;59.63;3.20;;;;;;;;;;5093116;28;20474;-68
2022/08/04 02:58:09;;;;;;;59.20;3.40;;;;;;;;;;5092806;28;20457;-67
2022/08/04 03:00:38;;;;;;;61.63;3.43;;;;;;;;;;5092884;28;20451;-67
2022/08/04 03:03:12;;;;;;;61.77;4.97;;;;;;;;;;5093268;28;20447;-67
2022/08/04 03:05:47;;;;;;;60.37;5.00;;;;;;;;;;5093179;28;20449;-67
2022/08/04 03:08:30;;;;;;;59.53;4.47;;;;;;;;;;5092847;28;20540;-67
2022/08/04 03:11:05;;;;;;;59.60;3.43;;;;;;;;;;5091417;28;20570;-67
2022/08/04 03:13:40;;;;;;;59.30;3.80;;;;;;;;;;5093262;28;20446;-67
2022/08/04 03:16:22;;;;;;;59.17;3.80;;;;;;;;;;5092850;28;20858;-67
2022/08/04 03:19:08;;;;;;;59.37;4.20;;;;;;;;;;5092938;28;20790;-67
2022/08/04 03:22:03;;;;;;;59.00;3.33;;;;;;;;;;5092747;28;20462;-68
2022/08/04 03:24:45;;;;;;;58.67;3.80;;;;;;;;;;5057339;28;20823;-67
2022/08/04 03:27:22;;;;;;;58.90;3.30;;;;;;;;;;5092947;28;20476;-67
2022/08/04 03:30:10;;;;;;;59.07;3.83;;;;;;;;;;5092391;28;20858;-67
2022/08/04 03:32:57;;;;;;;59.90;3.60;;;;;;;;;;5088268;28;20978;-67
2022/08/04 03:35:37;;;;;;;59.90;3.87;;;;;;;;;;5092451;28;20504;-67
2022/08/04 03:38:21;;;;;;;59.27;3.80;;;;;;;;;;5092654;28;20461;-67
2022/08/04 03:41:08;;;;;;;59.53;3.53;;;;;;;;;;5092205;28;20492;-67
2022/08/04 03:43:48;;;;;;;59.43;3.73;;;;;;;;;;5092378;28;20503;-67
2022/08/04 03:46:28;;;;;;;59.80;3.70;;;;;;;;;;5092621;28;20446;-67
2022/08/04 03:49:11;;;;;;;64.87;3.40;;;;;;;;;;5090438;28;20466;-68
2022/08/04 03:55:00;;;;;;;60.17;3.60;;;;;;;;;;5092347;28;20453;-67
2022/08/04 03:57:48;;;;;;;58.90;3.40;;;;;;;;;;5092371;28;20442;-67
2022/08/04 04:00:18;;;;;;;60.10;3.70;;;;;;;;;;5086908;28;20543;-67
2022/08/04 04:02:53;;;;;;;59.97;4.00;;;;;;;;;;5092149;28;20438;-67
2022/08/04 04:05:30;;;;;;;59.27;3.37;;;;;;;;;;5092229;28;20960;-67
2022/08/04 04:08:11;;;;;;;59.40;3.87;;;;;;;;;;5092124;28;20549;-67
2022/08/04 04:10:56;;;;;;;59.57;3.97;;;;;;;;;;5091680;28;20462;-67
2022/08/04 04:13:32;;;;;;;60.50;4.17;;;;;;;;;;5091904;28;20529;-67
2022/08/04 04:16:14;;;;;;;59.83;3.97;;;;;;;;;;5092100;28;20481;-67
2022/08/04 04:18:59;;;;;;;59.83;4.07;;;;;;;;;;5091705;28;20446;-67
2022/08/04 04:21:42;;;;;;;59.37;3.90;;;;;;;;;;5092159;28;20470;-68
2022/08/04 04:24:32;;;;;;;61.10;3.63;;;;;;;;;;5092080;28;20446;-67
2022/08/04 04:27:03;;;;;;;59.00;3.53;;;;;;;;;;5091889;28;20454;-67
2022/08/04 04:29:37;;;;;;;59.40;3.87;;;;;;;;;;5090136;28;20545;-68
2022/08/04 04:32:11;;;;;;;59.47;3.63;;;;;;;;;;5091909;28;20470;-67
2022/08/04 04:34:51;;;;;;;59.40;3.93;;;;;;;;;;5091865;28;20476;-67
2022/08/04 04:37:33;;;;;;;59.20;3.93;;;;;;;;;;5091850;28;20477;-67
2022/08/04 04:40:09;;;;;;;59.67;4.23;;;;;;;;;;5091538;28;20802;-67
2022/08/04 04:42:43;;;;;;;59.57;3.60;;;;;;;;;;5091751;28;20442;-67
2022/08/04 04:45:15;;;;;;;60.50;3.57;;;;;;;;;;5090523;28;20442;-68
2022/08/04 04:47:50;;;;;;;59.20;3.80;;;;;;;;;;5091800;28;20452;-67
2022/08/04 04:50:24;;;;;;;58.67;3.67;;;;;;;;;;5095141;28;20520;-67
2022/08/04 04:52:54;;;;;;;60.20;4.30;;;;;;;;;;5094774;28;20817;-67
2022/08/04 04:55:25;;;;;;;61.10;4.60;;;;;;;;;;5094951;28;20569;-67
2022/08/04 04:57:53;;;;;;;59.17;4.00;;;;;;;;;;5094420;28;20450;-67
2022/08/04 05:00:21;;;;;;;58.80;4.13;;;;;;;;;;5095163;28;20528;-67
2022/08/04 05:03:11;;;;;;;59.20;3.73;;;;;;;;;;5095373;28;20442;-68
2022/08/04 05:05:46;;;;;;;59.17;3.60;;;;;;;;;;5095667;28;20835;-67
2022/08/04 05:08:33;;;;;;;59.77;4.00;;;;;;;;;;5095479;28;20446;-67
2022/08/04 05:11:12;;;;;;;58.67;3.07;;;;;;;;;;5095481;28;20498;-68
2022/08/04 05:13:43;;;;;;;59.97;4.27;;;;;;;;;;5094415;28;20536;-68
2022/08/04 05:16:11;;;;;;;58.90;3.70;;;;;;;;;;5095382;28;20486;-68
2022/08/04 05:18:41;;;;;;;59.00;3.50;;;;;;;;;;5094893;28;20470;-67
2022/08/04 05:21:11;;;;;;;59.50;3.83;;;;;;;;;;5095150;28;20470;-68
2022/08/04 05:23:43;;;;;;;59.30;3.50;;;;;;;;;;5095053;28;20448;-67
2022/08/04 05:26:13;;;;;;;58.40;3.30;;;;;;;;;;5095372;28;20446;-67
2022/08/04 05:28:44;;;;;;;59.60;3.60;;;;;;;;;;5094891;28;20442;-68
2022/08/04 05:31:12;;;;;;;58.40;3.30;;;;;;;;;;5095059;28;20502;-67
2022/08/04 05:33:40;;;;;;;58.93;3.33;;;;;;;;;;5094929;28;20447;-67
2022/08/04 05:36:10;;;;;;;59.37;3.30;;;;;;;;;;5094723;28;20904;-68
2022/08/04 05:38:38;;;;;;;59.30;3.30;;;;;;;;;;5094997;28;20442;-67
2022/08/04 05:41:06;;;;;;;58.27;3.07;;;;;;;;;;5094872;28;20462;-67
2022/08/04 05:43:35;;;;;;;62.97;3.90;;;;;;;;;;5094642;28;20450;-67
2022/08/04 05:46:03;;;;;;;58.60;3.40;;;;;;;;;;5094842;28;20443;-68
2022/08/04 05:48:32;;;;;;;59.97;3.53;;;;;;;;;;5094869;28;20537;-67
2022/08/04 05:51:01;;;;;;;58.80;3.70;;;;;;;;;;5094492;28;20786;-67
2022/08/04 05:53:31;;;;;;;58.50;3.10;;;;;;;;;;5094662;28;20447;-67
2022/08/04 05:55:59;;;;;;;58.93;3.83;;;;;;;;;;5094523;28;20569;-67
2022/08/04 05:58:29;;;;;;;60.30;3.73;;;;;;;;;;5094433;28;20450;-67
2022/08/04 06:00:57;;;;;;;59.50;3.70;;;;;;;;;;5092945;28;20827;-68
2022/08/04 06:03:26;;;;;;;59.13;3.40;;;;;;;;;;5094504;28;20868;-67
2022/08/04 06:05:55;;;;;;;58.57;3.70;;;;;;;;;;5094282;28;20445;-67
2022/08/04 06:08:23;;;;;;;59.90;3.70;;;;;;;;;;5094270;28;20443;-68
2022/08/04 06:10:51;;;;;;;59.03;3.60;;;;;;;;;;5093952;28;20465;-68
2022/08/04 06:13:21;;;;;;;59.00;3.47;;;;;;;;;;5094214;28;20504;-67
2022/08/04 06:15:50;;;;;;;58.70;3.23;;;;;;;;;;5093945;28;20856;-68
2022/08/04 06:18:19;;;;;;;59.97;3.60;;;;;;;;;;5093826;28;20996;-67
2022/08/04 06:20:47;;;;;;;59.10;3.47;;;;;;;;;;5093789;28;20475;-67
2022/08/04 06:23:17;;;;;;;59.10;3.97;;;;;;;;;;5094088;28;20529;-68
2022/08/04 06:25:46;;;;;;;60.77;3.20;;;;;;;;;;5094036;28;20466;-68
2022/08/04 06:28:13;;;;;;;59.10;3.10;;;;;;;;;;5093686;28;20456;-67
2022/08/04 06:30:41;;;;;;;59.30;3.40;;;;;;;;;;5093606;28;20516;-68
2022/08/04 06:33:23;;;;;;;59.00;3.70;;;;;;;;;;5093692;28;20977;-68
2022/08/04 06:35:56;;;;;;;58.47;3.70;;;;;;;;;;5092424;28;20574;-68
2022/08/04 06:38:26;;;;;;;58.47;3.40;;;;;;;;;;5093655;28;20532;-65
2022/08/04 06:40:56;;;;;;;59.20;3.40;;;;;;;;;;5093442;28;20543;-66
2022/08/04 06:43:24;;;;;;;58.93;3.60;;;;;;;;;;5093542;28;20446;-65
2022/08/04 06:45:52;;;;;;;59.13;3.43;;;;;;;;;;5093382;28;20456;-65
2022/08/04 06:48:22;;;;;;;58.70;3.10;;;;;;;;;;5093526;28;20537;-65
2022/08/04 06:50:50;;;;;;;58.83;3.20;;;;;;;;;;5092883;28;20561;-65
2022/08/04 06:53:20;;;;;;;58.90;3.17;;;;;;;;;;5093117;28;21097;-65
2022/08/04 06:55:47;;;;;;;59.10;3.20;;;;;;;;;;5093453;28;20486;-65
2022/08/04 06:58:15;;;;;;;58.30;2.80;;;;;;;;;;5093659;28;20469;-65
2022/08/04 07:00:45;;;;;;;58.43;2.77;;;;;;;;;;5091622;28;20549;-64
2022/08/04 07:03:12;;;;;;;58.63;2.70;;;;;;;;;;5093169;28;20511;-64
2022/08/04 07:05:41;;;;;;;59.50;3.47;;;;;;;;;;5091823;28;20575;-65
2022/08/04 07:08:11;;;;;;;58.37;3.20;;;;;;;;;;5093205;28;20442;-65
2022/08/04 07:10:40;;;;;;;58.47;2.97;;;;;;;;;;5092481;28;20458;-65
2022/08/04 07:13:08;;;;;;;58.70;2.93;;;;;;;;;;5092949;28;20443;-65
2022/08/04 07:15:37;;;;;;;57.87;2.50;;;;;;;;;;5092753;28;21020;-65
2022/08/04 07:18:05;;;;;;;58.60;2.90;;;;;;;;;;5092965;28;20451;-65
2022/08/04 07:20:33;;;;;;;58.47;2.77;;;;;;;;;;5092772;28;20462;-65
2022/08/04 07:23:01;;;;;;;59.07;2.97;;;;;;;;;;5092820;28;20447;-65
2022/08/04 07:25:29;;;;;;;58.23;2.80;;;;;;;;;;5091508;28;20446;-65
2022/08/04 07:28:00;;;;;;;58.17;2.73;;;;;;;;;;5092807;28;20448;-66
2022/08/04 07:30:33;;;;;;;58.33;2.60;;;;;;;;;;5092295;28;21000;-65
2022/08/04 07:33:01;;;;;;;58.43;2.60;;;;;;;;;;5092671;28;20450;-65
2022/08/04 07:35:29;;;;;;;58.40;2.67;;;;;;;;;;5091356;28;20450;-66
2022/08/04 07:37:56;;;;;;;57.97;2.60;;;;;;;;;;5092178;28;20458;-64
2022/08/04 07:40:25;;;;;;;58.00;2.60;;;;;;;;;;5092243;28;20466;-65
2022/08/04 07:42:52;;;;;;;58.70;2.80;;;;;;;;;;5092715;28;20442;-65
2022/08/04 07:45:21;;;;;;;58.40;2.97;;;;;;;;;;5092254;28;20938;-65
2022/08/04 07:47:48;;;;;;;58.10;2.70;;;;;;;;;;5092554;28;20888;-65
2022/08/04 07:50:16;;;;;;;58.40;2.70;;;;;;;;;;5091990;28;20482;-65
2022/08/04 07:52:46;;;;;;;58.63;2.90;;;;;;;;;;5092410;28;20452;-65
2022/08/04 07:55:13;;;;;;;57.97;2.50;;;;;;;;;;5092261;28;20447;-66
2022/08/04 07:57:41;;;;;;;58.07;2.80;;;;;;;;;;5092039;28;20969;-65
2022/08/04 08:00:10;;;;;;;60.33;3.30;;;;;;;;;;5090518;28;20447;-65
2022/08/04 08:02:39;;;;;;;58.90;2.57;;;;;;;;;;5092430;28;20500;-65
2022/08/04 08:05:09;;;;;;;58.27;2.67;;;;;;;;;;5092064;28;20956;-65
2022/08/04 08:07:37;;;;;;;59.60;3.17;;;;;;;;;;5092353;28;20449;-65
2022/08/04 08:10:04;;;;;;;58.60;2.90;;;;;;;;;;5073741;28;20454;-65
2022/08/04 08:12:34;;;;;;;57.97;2.60;;;;;;;;;;5092154;28;20960;-66
2022/08/04 08:15:03;;;;;;;58.20;2.60;;;;;;;;;;5092169;28;20477;-66
2022/08/04 08:17:30;;;;;;;58.17;2.60;;;;;;;;;;5091856;28;20486;-66
2022/08/04 08:20:00;;;;;;;58.30;2.43;;;;;;;;;;5091524;28;20446;-65
2022/08/04 08:22:27;;;;;;;57.83;2.60;;;;;;;;;;5091499;28;20471;-65
2022/08/04 08:24:55;;;;;;;58.20;2.87;;;;;;;;;;5091670;28;21022;-66
2022/08/04 08:27:23;;;;;;;58.00;2.30;;;;;;;;;;5091782;28;20974;-65
2022/08/04 08:29:52;;;;;;;58.20;2.50;;;;;;;;;;5091549;28;20454;-65
2022/08/04 08:32:20;;;;;;;57.87;2.30;;;;;;;;;;5091888;28;20460;-65
2022/08/04 08:34:48;;;;;;;57.77;2.40;;;;;;;;;;5091837;28;20442;-65
2022/08/04 08:37:22;;;;;;;57.73;2.40;;;;;;;;;;5091582;28;20531;-65
2022/08/04 08:39:52;;;;;;;58.23;2.67;;;;;;;;;;5091060;28;20447;-65
2022/08/04 08:42:34;;;;;;;58.07;2.50;;;;;;;;;;5091917;28;20455;-65
2022/08/04 08:45:16;;;;;;;58.37;2.70;;;;;;;;;;5091814;28;20534;-65
2022/08/04 08:48:01;;;;;;;58.20;2.80;;;;;;;;;;5091941;28;20450;-65
2022/08/04 08:50:38;;;;;;;58.97;3.50;;;;;;;;;;5090092;28;20470;-66
2022/08/04 08:53:14;;;;;;;58.50;2.53;;;;;;;;;;5091620;28;20453;-66
2022/08/04 08:55:46;;;;;;;57.97;2.47;;;;;;;;;;5091625;28;20448;-65
2022/08/04 08:58:31;;;;;;;59.50;2.70;;;;;;;;;;5091454;28;20439;-65
2022/08/04 09:01:06;;;;;;;58.30;2.53;;;;;;;;;;5090386;28;20458;-65
2022/08/04 09:03:42;;;;;;;57.70;2.27;;;;;;;;;;5091602;28;20430;-66
2022/08/04 09:06:30;;;;;;;57.90;2.50;;;;;;;;;;5091258;28;20477;-66
2022/08/04 09:09:30;;;;;;;58.00;2.60;;;;;;;;;;5091571;28;20446;-65
2022/08/04 09:12:06;;;;;;;57.87;2.57;;;;;;;;;;5029019;28;20473;-65
2022/08/04 09:14:40;;;;;;;58.03;2.57;;;;;;;;;;5029064;28;20449;-65
2022/08/04 09:17:11;;;;;;;58.27;2.57;;;;;;;;;;5063693;28;20538;-65
2022/08/04 09:19:44;;;;;;;57.83;2.57;;;;;;;;;;5091431;28;20576;-66
2022/08/04 09:22:14;;;;;;;57.97;2.60;;;;;;;;;;5090103;28;20474;-65
2022/08/04 09:24:52;;;;;;;57.60;2.57;;;;;;;;;;5090163;28;20457;-66
2022/08/04 09:27:21;;;;;;;58.20;2.70;;;;;;;;;;5091350;28;20821;-66
2022/08/04 09:29:53;;;;;;;57.77;2.70;;;;;;;;;;5091281;28;20626;-65
2022/08/04 09:32:24;;;;;;;58.20;2.70;;;;;;;;;;5090028;28;21036;-66
2022/08/04 09:34:56;;;;;;;58.50;3.47;;;;;;;;;;5093266;28;20533;-65
2022/08/04 09:37:29;;;;;;;57.93;2.57;;;;;;;;;;5094798;28;20986;-65
2022/08/04 09:40:00;;;;;;;57.50;2.30;;;;;;;;;;5094370;28;20525;-66
2022/08/04 09:42:42;;;;;;;57.93;2.70;;;;;;;;;;5093637;28;20454;-66
2022/08/04 09:45:13;;;;;;;57.60;2.63;;;;;;;;;;5094543;28;20476;-65
2022/08/04 09:47:45;;;;;;;57.60;2.53;;;;;;;;;;5094727;28;20530;-66
2022/08/04 09:50:18;;;;;;;57.57;2.43;;;;;;;;;;5093607;28;20482;-66
2022/08/04 09:52:48;;;;;;;57.73;2.50;;;;;;;;;;5094883;28;20461;-66
2022/08/04 09:55:20;;;;;;;57.43;2.20;;;;;;;;;;5095173;28;20447;-65
2022/08/04 09:57:54;;;;;;;57.30;2.27;;;;;;;;;;5093198;28;20484;-66
2022/08/04 10:00:21;;;;;;;57.80;2.80;;;;;;;;;;5094118;28;20468;-66
2022/08/04 10:02:51;;;;;;;57.90;2.60;;;;;;;;;;5092986;28;20447;-66
2022/08/04 10:05:23;;;;;;;57.57;2.60;;;;;;;;;;5094692;28;20450;-65
2022/08/04 10:08:16;;;;;;;58.37;2.77;;;;;;;;;;5094430;28;20443;-65
2022/08/04 10:10:54;;;;;;;57.37;2.20;;;;;;;;;;5094053;28;20463;-66
2022/08/04 10:13:33;;;;;;;57.37;2.40;;;;;;;;;;5093984;28;20458;-66
2022/08/04 10:16:17;;;;;;;57.60;2.27;;;;;;;;;;5092546;28;20492;-66
2022/08/04 10:18:56;;;;;;;58.50;2.80;;;;;;;;;;5092508;28;20926;-66
2022/08/04 10:21:30;;;;;;;57.57;2.73;;;;;;;;;;5094197;28;20759;-66
2022/08/04 10:24:12;;;;;;;56.97;2.57;;;;;;;;;;5094130;28;20449;-66
2022/08/04 10:26:46;;;;;;;56.90;2.40;;;;;;;;;;5094017;28;20442;-66
2022/08/04 10:29:17;;;;;;;55.87;2.37;;;;;;;;;;5093472;28;20814;-66
2022/08/04 10:31:48;;;;;;;56.60;2.03;;;;;;;;;;5092030;28;20474;-66
2022/08/04 10:34:31;;;;;;;56.23;2.60;;;;;;;;;;5093656;28;20950;-66
2022/08/04 10:37:02;;;;;;;55.63;2.40;;;;;;;;;;5093750;28;20567;-67
2022/08/04 10:39:34;;;;;;;56.27;2.40;;;;;;;;;;5093100;28;20831;-67
2022/08/04 10:42:23;;;;;;;57.20;2.93;;;;;;;;;;5091387;28;20577;-67
2022/08/04 10:45:05;;;;;;;56.43;2.40;;;;;;;;;;5091292;28;20982;-67
2022/08/04 10:50:41;;;;;;;56.20;2.23;;;;;;;;;;5089403;28;20739;-67
2022/08/04 10:53:14;;;;;;;56.03;2.40;;;;;;;;;;5091624;28;20525;-67
2022/08/04 10:55:46;;;;;;;56.10;2.47;;;;;;;;;;5091582;28;20989;-67
2022/08/04 10:58:18;;;;;;;55.47;2.17;;;;;;;;;;5092786;28;21004;-67
2022/08/04 11:00:55;;;;;;;56.40;2.60;;;;;;;;;;5093004;28;20479;-67
2022/08/04 11:03:25;;;;;;;56.70;2.43;;;;;;;;;;5093330;28;20453;-67
2022/08/04 11:05:55;;;;;;;56.10;2.50;;;;;;;;;;5093456;28;20522;-67
2022/08/04 11:08:28;;;;;;;55.83;2.10;;;;;;;;;;5093017;28;20446;-67
2022/08/04 11:11:01;;;;;;;56.37;2.50;;;;;;;;;;5092414;28;20498;-67
2022/08/04 11:13:44;;;;;;;56.20;2.40;;;;;;;;;;5093076;28;20918;-67
2022/08/04 11:16:17;;;;;;;56.00;2.40;;;;;;;;;;5091185;28;20496;-67
2022/08/04 11:18:48;;;;;;;55.87;2.50;;;;;;;;;;5092375;28;20565;-67
2022/08/04 11:21:22;;;;;;;56.07;2.20;;;;;;;;;;5092821;28;21042;-67
2022/08/04 11:23:56;;;;;;;55.97;2.40;;;;;;;;;;5092742;28;20530;-66
2022/08/04 11:26:29;;;;;;;55.77;2.07;;;;;;;;;;5092909;28;20946;-67
2022/08/04 11:29:02;;;;;;;56.20;2.30;;;;;;;;;;5092513;28;20447;-67
2022/08/04 11:31:35;;;;;;;56.07;2.10;;;;;;;;;;5092635;28;20471;-66
2022/08/04 11:34:06;;;;;;;56.20;2.20;;;;;;;;;;5090991;28;20442;-67
2022/08/04 11:36:43;;;;;;;56.07;2.20;;;;;;;;;;5092469;28;20950;-67
2022/08/04 11:39:14;;;;;;;55.90;2.40;;;;;;;;;;5092390;28;20460;-67
2022/08/04 11:41:47;;;;;;;56.10;2.60;;;;;;;;;;5092574;28;20505;-67
2022/08/04 11:44:19;;;;;;;56.17;2.47;;;;;;;;;;5091313;28;20505;-67
2022/08/04 11:46:50;;;;;;;56.10;2.70;;;;;;;;;;5092214;28;20465;-68
2022/08/04 11:49:25;;;;;;;56.07;2.30;;;;;;;;;;5091973;28;20462;-67
2022/08/04 11:51:57;;;;;;;55.87;2.60;;;;;;;;;;5092203;28;20515;-67
2022/08/04 11:54:26;;;;;;;55.80;2.50;;;;;;;;;;5091157;28;20442;-67
2022/08/04 11:57:01;;;;;;;56.10;2.57;;;;;;;;;;5092129;28;20453;-67
2022/08/04 11:59:35;;;;;;;56.50;2.50;;;;;;;;;;5091334;28;20448;-67
2022/08/04 12:02:19;;;;;;;56.10;2.30;;;;;;;;;;5056558;28;20998;-67
2022/08/04 12:04:51;;;;;;;55.97;2.20;;;;;;;;;;5080136;28;20507;-67
2022/08/04 12:07:24;;;;;;;56.27;2.60;;;;;;;;;;5092308;28;20600;-67
2022/08/04 12:10:04;;;;;;;55.83;2.40;;;;;;;;;;5088340;28;20450;-67
2022/08/04 12:15:40;;;;;;;56.80;2.53;;;;;;;;;;5089935;28;20409;-67
2022/08/04 12:18:26;;;;;;;56.30;2.67;;;;;;;;;;5090123;28;20482;-67
2022/08/04 12:20:58;;;;;;;55.87;2.27;;;;;;;;;;5091783;28;20466;-67
2022/08/04 12:26:26;;;;;;;56.47;2.57;;;;;;;;;;5048184;28;20440;-67
2022/08/04 12:28:58;;;;;;;56.27;2.50;;;;;;;;;;5048893;28;20439;-67
2022/08/04 12:31:27;;;;;;;56.07;2.20;;;;;;;;;;5049320;28;20464;-67
2022/08/04 12:34:01;;;;;;;55.87;2.30;;;;;;;;;;5031997;28;20444;-67
2022/08/04 12:36:39;;;;;;;55.83;2.30;;;;;;;;;;5049662;28;20475;-67
2022/08/04 12:39:14;;;;;;;55.57;2.33;;;;;;;;;;5047671;28;20491;-67
2022/08/04 12:41:49;;;;;;;55.77;2.30;;;;;;;;;;5049265;28;21007;-67
2022/08/04 12:44:16;;;;;;;56.70;2.30;;;;;;;;;;5049240;28;20466;-67
2022/08/04 12:46:46;;;;;;;56.10;2.60;;;;;;;;;;5049148;28;20952;-69
2022/08/04 12:49:16;;;;;;;56.57;2.90;;;;;;;;;;5048466;28;20460;-67
2022/08/04 12:51:47;;;;;;;55.83;2.40;;;;;;;;;;5049154;28;20473;-68
2022/08/04 12:54:27;;;;;;;56.43;2.80;;;;;;;;;;5048992;28;20448;-68
2022/08/04 12:57:01;;;;;;;55.87;2.40;;;;;;;;;;5065995;28;20465;-68
2022/08/04 12:59:29;;;;;;;56.10;2.50;;;;;;;;;;5091338;28;20802;-68
2022/08/04 13:01:57;;;;;;;55.70;2.20;;;;;;;;;;5091643;28;20553;-68
2022/08/04 13:04:27;;;;;;;55.77;2.27;;;;;;;;;;5091790;28;20417;-68
2022/08/04 13:06:58;;;;;;;56.50;2.70;;;;;;;;;;5091634;28;20541;-68
2022/08/04 13:09:29;;;;;;;55.77;2.50;;;;;;;;;;5092329;28;20950;-68
2022/08/04 13:12:01;;;;;;;56.07;2.33;;;;;;;;;;5095193;28;21041;-67
2022/08/04 13:14:29;;;;;;;55.70;2.23;;;;;;;;;;5095516;28;20446;-67
2022/08/04 13:17:00;;;;;;;57.10;2.60;;;;;;;;;;5095468;28;20813;-67
2022/08/04 13:19:31;;;;;;;56.30;2.53;;;;;;;;;;5094758;28;20518;-67
2022/08/04 13:21:59;;;;;;;55.67;2.43;;;;;;;;;;5095171;28;20480;-68
2022/08/04 13:24:29;;;;;;;55.67;2.60;;;;;;;;;;5095257;28;20533;-67
2022/08/04 13:26:59;;;;;;;56.10;2.67;;;;;;;;;;5095250;28;20448;-68
2022/08/04 13:29:30;;;;;;;55.50;2.30;;;;;;;;;;5094778;28;20484;-68
2022/08/04 13:31:59;;;;;;;55.67;2.90;;;;;;;;;;5093617;28;20478;-67
2022/08/04 13:34:26;;;;;;;56.00;2.50;;;;;;;;;;5094963;28;20442;-68
2022/08/04 13:36:56;;;;;;;56.10;2.33;;;;;;;;;;5094676;28;20449;-68
2022/08/04 13:39:25;;;;;;;56.00;2.70;;;;;;;;;;5094756;28;20565;-67
2022/08/04 13:41:59;;;;;;;55.60;2.40;;;;;;;;;;5094912;28;20561;-68
2022/08/04 13:44:27;;;;;;;57.30;2.80;;;;;;;;;;5094906;28;20496;-67
2022/08/04 13:46:56;;;;;;;56.40;2.80;;;;;;;;;;5094765;28;20533;-67
2022/08/04 13:49:24;;;;;;;56.50;2.57;;;;;;;;;;5092962;28;20482;-67
2022/08/04 13:51:53;;;;;;;55.90;2.60;;;;;;;;;;5093525;28;20498;-68
2022/08/04 13:54:21;;;;;;;56.30;2.40;;;;;;;;;;5094755;28;20918;-68
2022/08/04 13:56:51;;;;;;;55.67;2.17;;;;;;;;;;5093999;28;20453;-67
2022/08/04 13:59:21;;;;;;;55.40;2.30;;;;;;;;;;5094147;28;20499;-67
2022/08/04 14:02:01;;;;;;;55.87;2.30;;;;;;;;;;5094455;28;20830;-66
2022/08/04 14:04:30;;;;;;;55.67;2.80;;;;;;;;;;5094420;28;20457;-66
2022/08/04 14:07:03;;;;;;;56.40;2.60;;;;;;;;;;5094496;28;20529;-67
2022/08/04 14:09:32;;;;;;;56.30;3.63;;;;;;;;;;5094082;28;20461;-67
2022/08/04 14:12:05;;;;;;;55.90;2.53;;;;;;;;;;5093082;28;20470;-67
2022/08/04 14:14:35;;;;;;;55.90;2.40;;;;;;;;;;5094170;28;20446;-67
2022/08/04 14:17:04;;;;;;;56.00;2.60;;;;;;;;;;5092898;28;20545;-67
2022/08/04 14:19:48;;;;;;;55.97;2.33;;;;;;;;;;5093420;28;20577;-67
2022/08/04 14:22:29;;;;;;;55.57;2.30;;;;;;;;;;5092933;28;20470;-67
2022/08/04 14:24:56;;;;;;;56.27;2.70;;;;;;;;;;5094022;28;20456;-67
2022/08/04 14:27:25;;;;;;;56.00;2.90;;;;;;;;;;5093960;28;20442;-67
2022/08/04 14:29:55;;;;;;;55.70;2.63;;;;;;;;;;5093838;28;20454;-67
2022/08/04 14:32:25;;;;;;;56.07;2.73;;;;;;;;;;5093938;28;20447;-67
2022/08/04 14:34:53;;;;;;;56.10;2.60;;;;;;;;;;5093779;28;20566;-67
2022/08/04 14:37:21;;;;;;;55.70;2.30;;;;;;;;;;5093584;28;20454;-68
2022/08/04 14:39:55;;;;;;;55.63;2.40;;;;;;;;;;5093627;28;20525;-67
2022/08/04 14:42:40;;;;;;;55.80;2.70;;;;;;;;;;5093794;28;20515;-67
2022/08/04 14:45:10;;;;;;;56.07;2.60;;;;;;;;;;5093670;28;20898;-67
2022/08/04 14:47:41;;;;;;;55.90;2.50;;;;;;;;;;5093564;28;20460;-67
2022/08/04 14:50:10;;;;;;;55.67;2.37;;;;;;;;;;5093024;28;20462;-67
2022/08/04 14:52:38;;;;;;;56.23;2.50;;;;;;;;;;5091860;28;20516;-67
2022/08/04 14:55:18;;;;;;;55.67;2.63;;;;;;;;;;5093537;28;20526;-68
2022/08/04 14:57:47;;;;;;;55.90;2.47;;;;;;;;;;5093361;28;20457;-67
2022/08/04 15:00:26;;;;;;;55.37;2.30;;;;;;;;;;5092738;28;20462;-67
2022/08/04 15:02:53;;;;;;;55.80;2.40;;;;;;;;;;5092916;28;20511;-67
2022/08/04 15:05:23;;;;;;;55.77;2.33;;;;;;;;;;5093344;28;20491;-67
2022/08/04 15:07:50;;;;;;;56.60;2.83;;;;;;;;;;5093313;28;20438;-67
2022/08/04 15:10:18;;;;;;;56.30;2.50;;;;;;;;;;5091461;28;20463;-67
2022/08/04 15:12:45;;;;;;;56.63;2.33;;;;;;;;;;5092986;28;20446;-66
2022/08/04 15:15:13;;;;;;;56.07;2.40;;;;;;;;;;5093187;28;20459;-67